createdAt,value
2019-03-10T00:00:45.459Z,16.61
2019-03-10T00:03:36.288Z,16.72
2019-03-10T00:06:07.129Z,16.78
2019-03-10T00:08:40.955Z,16.70
2019-03-10T00:11:12.848Z,16.61
2019-03-10T00:13:43.605Z,16.77
2019-03-10T00:16:14.441Z,17.00
2019-03-10T00:21:55.687Z,17.17
2019-03-10T00:24:26.479Z,17.38
2019-03-10T00:27:17.368Z,17.39
2019-03-10T00:29:49.151Z,17.58
2019-03-10T00:35:21.460Z,17.61
2019-03-10T00:41:21.457Z,18.01
2019-03-10T00:44:31.050Z,18.03
2019-03-10T00:47:39.865Z,17.92
2019-03-10T00:50:34.144Z,18.04
2019-03-10T00:53:23.946Z,18.19
2019-03-10T00:56:14.107Z,18.43
2019-03-10T00:58:45.118Z,18.30
2019-03-10T01:01:16.006Z,18.09
2019-03-10T01:04:39.281Z,17.97
2019-03-10T01:07:02.194Z,17.87
2019-03-10T01:09:52.347Z,17.74
2019-03-10T01:12:43.443Z,17.73
2019-03-10T01:15:35.806Z,17.83
2019-03-10T01:18:07.383Z,17.69
2019-03-10T01:20:52.392Z,17.63
2019-03-10T01:23:13.422Z,17.66
2019-03-10T01:26:03.254Z,17.43
2019-03-10T01:28:34.041Z,17.36
2019-03-10T01:31:19.672Z,17.25
2019-03-10T01:37:03.666Z,17.13
2019-03-10T01:39:34.512Z,17.04
2019-03-10T01:42:24.439Z,16.96
2019-03-10T01:48:08.661Z,17.03
2019-03-10T01:50:41.595Z,16.98
2019-03-10T01:53:31.984Z,16.90
2019-03-10T01:59:03.586Z,16.57
2019-03-10T02:01:34.409Z,16.69
2019-03-10T02:04:24.987Z,16.87
2019-03-10T02:10:27.159Z,16.93
2019-03-10T02:13:02.693Z,17.00
2019-03-10T02:22:17.984Z,17.15
2019-03-10T02:24:48.732Z,17.25
2019-03-10T02:27:24.185Z,17.22
2019-03-10T02:36:19.449Z,17.06
2019-03-10T02:39:21.950Z,17.02
2019-03-10T02:41:53.888Z,17.28
2019-03-10T02:47:08.087Z,17.72
2019-03-10T02:49:38.787Z,17.57
2019-03-10T02:52:10.024Z,17.62
2019-03-10T02:54:40.778Z,17.81
2019-03-10T02:57:11.606Z,17.81
2019-03-10T02:59:42.466Z,18.19
2019-03-10T03:02:13.222Z,18.21
2019-03-10T03:04:43.997Z,18.17
2019-03-10T03:07:15.568Z,18.11
2019-03-10T03:09:46.351Z,17.82
2019-03-10T03:12:17.087Z,17.67
2019-03-10T03:14:53.668Z,17.98
2019-03-10T03:17:24.024Z,17.72
2019-03-10T03:19:55.640Z,17.34
2019-03-10T03:22:26.317Z,17.23
2019-03-10T03:24:57.986Z,17.17
2019-03-10T03:27:29.007Z,17.16
2019-03-10T03:30:01.776Z,17.25
2019-03-10T03:32:32.598Z,17.54
2019-03-10T03:35:28.940Z,17.55
2019-03-10T03:38:00.307Z,17.67
2019-03-10T03:40:31.188Z,17.68
2019-03-10T03:43:02.908Z,17.56
2019-03-10T03:45:33.703Z,17.47
2019-03-10T03:48:04.699Z,17.67
2019-03-10T03:50:36.609Z,17.53
2019-03-10T03:53:08.776Z,17.31
2019-03-10T03:55:39.651Z,17.34
2019-03-10T03:58:11.442Z,17.26
2019-03-10T04:00:45.960Z,17.11
2019-03-10T04:03:17.548Z,17.05
2019-03-10T04:05:48.283Z,17.21
2019-03-10T04:08:19.035Z,17.17
2019-03-10T04:10:53.494Z,17.34
2019-03-10T04:13:25.264Z,17.22
2019-03-10T04:15:56.866Z,17.21
2019-03-10T04:18:27.635Z,17.27
2019-03-10T04:21:00.203Z,17.27
2019-03-10T04:23:31.497Z,17.38
2019-03-10T04:26:03.394Z,17.64
2019-03-10T04:28:34.887Z,17.51
2019-03-10T04:31:05.746Z,17.30
2019-03-10T04:33:37.910Z,17.13
2019-03-10T04:36:09.077Z,16.87
2019-03-10T04:38:39.876Z,16.90
2019-03-10T04:41:10.653Z,16.84
2019-03-10T04:43:42.619Z,16.90
2019-03-10T04:46:15.371Z,16.84
2019-03-10T04:48:47.154Z,16.68
2019-03-10T04:51:17.863Z,16.68
2019-03-10T04:53:49.519Z,16.68
2019-03-10T04:56:49.367Z,16.79
2019-03-10T04:59:21.016Z,16.92
2019-03-10T05:01:52.257Z,16.85
2019-03-10T05:04:23.085Z,16.80
2019-03-10T05:06:54.777Z,16.65
2019-03-10T05:09:25.532Z,16.54
2019-03-10T05:11:56.367Z,16.34
2019-03-10T05:14:28.042Z,16.31
2019-03-10T05:17:01.111Z,16.25
2019-03-10T05:19:31.917Z,16.30
2019-03-10T05:22:02.648Z,16.21
2019-03-10T05:24:33.420Z,16.05
2019-03-10T05:27:05.043Z,15.90
2019-03-10T05:29:36.642Z,15.87
2019-03-10T05:32:07.360Z,15.87
2019-03-10T05:34:38.706Z,15.93
2019-03-10T05:37:10.451Z,15.87
2019-03-10T05:39:43.591Z,15.84
2019-03-10T05:42:15.196Z,15.94
2019-03-10T05:44:45.969Z,15.93
2019-03-10T05:47:17.915Z,15.94
2019-03-10T05:49:48.583Z,15.84
2019-03-10T05:52:19.337Z,15.74
2019-03-10T05:54:52.399Z,15.59
2019-03-10T05:57:23.113Z,15.53
2019-03-10T05:59:53.955Z,15.56
2019-03-10T06:02:25.196Z,15.50
2019-03-10T06:04:56.939Z,15.37
2019-03-10T06:07:28.499Z,15.38
2019-03-10T06:09:59.180Z,15.27
2019-03-10T06:12:29.912Z,15.25
2019-03-10T06:15:01.803Z,15.18
2019-03-10T06:17:35.019Z,15.28
2019-03-10T06:20:08.366Z,15.28
2019-03-10T06:22:40.246Z,15.43
2019-03-10T06:25:18.844Z,15.49
2019-03-10T06:27:49.035Z,15.79
2019-03-10T06:30:22.143Z,16.05
2019-03-10T06:32:52.811Z,16.25
2019-03-10T06:35:23.961Z,15.97
2019-03-10T06:37:53.649Z,15.76
2019-03-10T06:40:31.589Z,15.92
2019-03-10T06:42:55.366Z,15.91
2019-03-10T06:45:45.210Z,15.65
2019-03-10T06:48:16.360Z,15.69
2019-03-10T06:50:48.547Z,15.83
2019-03-10T06:53:19.467Z,15.75
2019-03-10T06:55:50.239Z,15.76
2019-03-10T06:58:21.098Z,15.68
2019-03-10T07:00:52.799Z,15.77
2019-03-10T07:03:24.538Z,15.85
2019-03-10T07:05:56.442Z,15.69
2019-03-10T07:08:27.342Z,15.81
2019-03-10T07:10:58.182Z,15.61
2019-03-10T07:13:30.011Z,15.87
2019-03-10T07:16:02.732Z,15.86
2019-03-10T07:18:33.741Z,15.71
2019-03-10T07:21:04.570Z,15.66
2019-03-10T07:23:34.563Z,15.93
2019-03-10T07:26:08.980Z,15.93
2019-03-10T07:29:04.191Z,16.13
2019-03-10T07:31:50.371Z,16.13
2019-03-10T07:34:40.715Z,16.10
2019-03-10T07:37:29.539Z,15.86
2019-03-10T07:40:28.149Z,15.73
2019-03-10T07:43:17.587Z,15.75
2019-03-10T07:46:10.614Z,15.67
2019-03-10T07:48:52.191Z,15.70
2019-03-10T07:51:39.524Z,15.70
2019-03-10T07:54:29.916Z,15.84
2019-03-10T07:57:18.396Z,15.89
2019-03-10T08:00:06.373Z,15.67
2019-03-10T08:02:45.748Z,15.66
2019-03-10T08:05:33.661Z,15.62
2019-03-10T08:08:16.260Z,15.74
2019-03-10T08:10:59.044Z,15.96
2019-03-10T08:13:49.841Z,16.17
2019-03-10T08:16:48.613Z,16.05
2019-03-10T08:19:50.799Z,16.20
2019-03-10T08:22:40.404Z,16.11
2019-03-10T08:25:39.198Z,16.12
2019-03-10T08:28:28.050Z,16.31
2019-03-10T08:31:32.991Z,16.27
2019-03-10T08:34:22.726Z,16.47
2019-03-10T08:37:21.680Z,16.47
2019-03-10T08:40:19.367Z,16.75
2019-03-10T08:43:16.118Z,16.59
2019-03-10T08:46:14.875Z,16.85
2019-03-10T08:49:03.410Z,17.10
2019-03-10T08:51:46.259Z,17.10
2019-03-10T08:54:41.497Z,17.01
2019-03-10T08:57:26.639Z,17.28
2019-03-10T09:00:17.790Z,17.54
2019-03-10T09:03:20.201Z,17.49
2019-03-10T09:06:05.948Z,17.41
2019-03-10T09:09:02.598Z,17.38
2019-03-10T09:11:45.283Z,17.58
2019-03-10T09:14:41.260Z,17.76
2019-03-10T09:17:47.393Z,18.09
2019-03-10T09:20:47.333Z,18.12
2019-03-10T09:23:45.303Z,18.11
2019-03-10T09:26:26.134Z,18.15
2019-03-10T09:29:14.867Z,18.39
2019-03-10T09:32:15.870Z,18.28
2019-03-10T09:34:59.974Z,18.50
2019-03-10T09:37:47.907Z,18.52
2019-03-10T09:40:46.723Z,18.77
2019-03-10T09:43:37.372Z,18.90
2019-03-10T09:46:34.536Z,18.97
2019-03-10T09:49:15.194Z,19.15
2019-03-10T09:51:58.500Z,19.24
2019-03-10T09:55:01.890Z,19.25
2019-03-10T09:57:54.508Z,19.34
2019-03-10T10:00:48.078Z,19.56
2019-03-10T10:03:39.613Z,19.84
2019-03-10T10:06:25.208Z,19.99
2019-03-10T10:09:35.883Z,20.05
2019-03-10T10:12:31.488Z,20.38
2019-03-10T10:15:27.447Z,20.32
2019-03-10T10:18:18.463Z,20.21
2019-03-10T10:21:26.176Z,20.09
2019-03-10T10:24:12.595Z,20.19
2019-03-10T10:26:53.916Z,20.13
2019-03-10T10:29:59.406Z,20.37
2019-03-10T10:33:00.770Z,20.11
2019-03-10T10:36:01.428Z,19.07
2019-03-10T10:38:49.779Z,18.43
2019-03-10T10:41:41.067Z,18.16
2019-03-10T10:44:35.825Z,18.52
2019-03-10T10:47:27.901Z,18.67
2019-03-10T10:50:35.573Z,18.51
2019-03-10T10:53:35.076Z,17.39
2019-03-10T10:56:28.775Z,17.39
2019-03-10T10:59:19.250Z,17.14
2019-03-10T11:02:09.412Z,17.17
2019-03-10T11:05:07.159Z,17.36
2019-03-10T11:08:00.989Z,17.54
2019-03-10T11:10:55.772Z,17.86
2019-03-10T11:13:45.294Z,18.11
2019-03-10T11:16:39.535Z,18.46
2019-03-10T11:19:17.076Z,18.33
2019-03-10T11:22:09.719Z,18.26
2019-03-10T11:24:49.546Z,17.61
2019-03-10T11:27:32.045Z,17.43
2019-03-10T11:30:37.578Z,16.88
2019-03-10T11:33:16.884Z,16.87
2019-03-10T11:36:11.984Z,17.37
2019-03-10T11:39:12.004Z,17.37
2019-03-10T11:41:51.574Z,17.24
2019-03-10T11:44:41.065Z,17.85
2019-03-10T11:47:28.970Z,18.65
2019-03-10T11:50:21.752Z,19.34
2019-03-10T11:53:03.436Z,20.15
2019-03-10T11:55:53.295Z,20.92
2019-03-10T11:58:54.753Z,21.48
2019-03-10T12:01:55.278Z,21.88
2019-03-10T12:04:47.762Z,21.81
2019-03-10T12:07:51.881Z,21.69
2019-03-10T12:10:29.335Z,21.29
2019-03-10T12:13:04.593Z,20.67
2019-03-10T12:15:38.604Z,19.78
2019-03-10T12:18:10.599Z,19.37
2019-03-10T12:20:42.881Z,19.27
2019-03-10T12:23:15.085Z,19.36
2019-03-10T12:25:56.248Z,19.93
2019-03-10T12:28:29.433Z,19.23
2019-03-10T12:31:03.374Z,19.23
2019-03-10T12:33:38.316Z,18.91
2019-03-10T12:36:11.193Z,18.73
2019-03-10T12:38:45.632Z,18.16
2019-03-10T12:41:17.624Z,18.25
2019-03-10T12:43:48.583Z,18.37
2019-03-10T12:46:27.048Z,18.07
2019-03-10T12:49:00.059Z,18.45
2019-03-10T12:51:32.212Z,18.66
2019-03-10T12:54:07.370Z,18.87
2019-03-10T12:56:45.867Z,19.39
2019-03-10T12:59:21.855Z,18.99
2019-03-10T13:02:04.057Z,19.15
2019-03-10T13:04:36.945Z,19.43
2019-03-10T13:07:10.086Z,20.02
2019-03-10T13:09:52.873Z,20.73
2019-03-10T13:12:24.745Z,20.53
2019-03-10T13:15:06.730Z,20.08
2019-03-10T13:17:38.428Z,20.13
2019-03-10T13:20:13.580Z,19.93
2019-03-10T13:22:45.819Z,19.73
2019-03-10T13:25:20.542Z,19.33
2019-03-10T13:27:54.343Z,19.40
2019-03-10T13:30:31.657Z,19.28
2019-03-10T13:33:06.100Z,19.85
2019-03-10T13:35:39.360Z,19.96
2019-03-10T13:38:10.778Z,19.83
2019-03-10T13:40:42.708Z,19.95
2019-03-10T13:43:14.436Z,19.79
2019-03-10T13:45:46.147Z,19.21
2019-03-10T13:48:22.072Z,18.84
2019-03-10T13:50:53.935Z,18.84
2019-03-10T13:53:30.486Z,18.88
2019-03-10T13:56:05.345Z,18.87
2019-03-10T13:58:48.775Z,18.87
2019-03-10T14:01:25.484Z,18.74
2019-03-10T14:04:05.215Z,18.64
2019-03-10T14:06:36.749Z,18.82
2019-03-10T14:09:09.979Z,18.20
2019-03-10T14:11:49.200Z,18.39
2019-03-10T14:14:24.368Z,18.29
2019-03-10T14:16:55.659Z,18.77
2019-03-10T14:19:28.694Z,18.49
2019-03-10T14:21:59.674Z,18.58
2019-03-10T14:24:35.378Z,18.31
2019-03-10T14:27:07.715Z,18.35
2019-03-10T14:29:46.985Z,19.27
2019-03-10T14:32:20.162Z,19.27
2019-03-10T14:34:54.749Z,18.68
2019-03-10T14:37:29.052Z,18.22
2019-03-10T14:40:09.402Z,18.22
2019-03-10T14:42:43.265Z,17.88
2019-03-10T14:45:25.303Z,18.07
2019-03-10T14:48:09.047Z,18.08
2019-03-10T14:50:37.911Z,18.08
2019-03-10T14:53:09.798Z,18.78
2019-03-10T14:55:42.459Z,18.78
2019-03-10T14:58:15.617Z,18.91
2019-03-10T15:00:48.511Z,18.91
2019-03-10T15:03:26.075Z,18.50
2019-03-10T15:06:02.543Z,18.24
2019-03-10T15:08:35.822Z,17.96
2019-03-10T15:11:13.872Z,18.33
2019-03-10T15:13:47.481Z,18.33
2019-03-10T15:16:20.410Z,18.28
2019-03-10T15:18:54.177Z,17.77
2019-03-10T15:21:26.736Z,17.74
2019-03-10T15:24:01.503Z,17.75
2019-03-10T15:26:44.928Z,17.17
2019-03-10T15:29:17.007Z,16.85
2019-03-10T15:31:47.147Z,16.56
2019-03-10T15:34:24.708Z,16.88
2019-03-10T15:36:58.323Z,16.74
2019-03-10T15:39:36.451Z,17.02
2019-03-10T15:42:08.708Z,17.50
2019-03-10T15:44:41.852Z,17.68
2019-03-10T15:47:19.164Z,17.44
2019-03-10T15:49:56.287Z,17.09
2019-03-10T15:52:28.195Z,16.67
2019-03-10T15:55:09.701Z,16.68
2019-03-10T15:57:50.319Z,16.93
2019-03-10T16:00:22.025Z,16.66
2019-03-10T16:02:55.383Z,16.42
2019-03-10T16:05:27.643Z,16.43
2019-03-10T16:08:00.821Z,16.17
2019-03-10T16:10:37.899Z,15.85
2019-03-10T16:13:14.856Z,16.06
2019-03-10T16:15:46.758Z,16.06
2019-03-10T16:18:24.235Z,15.78
2019-03-10T16:20:56.130Z,16.02
2019-03-10T16:23:30.291Z,16.26
2019-03-10T16:26:11.110Z,16.50
2019-03-10T16:28:48.062Z,16.08
2019-03-10T16:31:23.491Z,15.92
2019-03-10T16:34:01.150Z,16.38
2019-03-10T16:36:37.412Z,16.06
2019-03-10T16:39:12.816Z,15.98
2019-03-10T16:41:46.484Z,15.64
2019-03-10T16:44:19.651Z,15.23
2019-03-10T16:46:55.592Z,15.16
2019-03-10T16:49:27.981Z,15.55
2019-03-10T16:52:03.988Z,15.75
2019-03-10T16:54:37.472Z,15.52
2019-03-10T16:57:12.258Z,15.29
2019-03-10T16:59:47.833Z,15.50
2019-03-10T17:02:22.679Z,15.40
2019-03-10T17:04:54.441Z,15.53
2019-03-10T17:07:30.028Z,15.51
2019-03-10T17:10:03.365Z,15.49
2019-03-10T17:12:38.527Z,15.65
2019-03-10T17:15:18.509Z,15.56
2019-03-10T17:17:54.527Z,15.85
2019-03-10T17:20:29.164Z,16.36
2019-03-10T17:23:20.990Z,16.93
2019-03-10T17:25:55.178Z,17.33
2019-03-10T17:28:26.149Z,17.64
2019-03-10T17:31:00.843Z,18.48
2019-03-10T17:33:31.766Z,18.48
2019-03-10T17:36:04.761Z,18.77
2019-03-10T17:38:43.261Z,18.61
2019-03-10T17:41:19.188Z,18.40
2019-03-10T17:43:52.064Z,18.28
2019-03-10T17:46:23.835Z,18.00
2019-03-10T17:49:00.631Z,17.61
2019-03-10T17:51:54.245Z,17.09
2019-03-10T17:54:20.616Z,16.90
2019-03-10T17:56:57.129Z,16.72
2019-03-10T17:59:33.909Z,16.53
2019-03-10T18:02:10.080Z,16.35
2019-03-10T18:04:47.185Z,15.64
2019-03-10T18:07:23.167Z,15.04
2019-03-10T18:09:58.444Z,14.08
2019-03-10T18:12:30.287Z,13.59
2019-03-10T18:17:57.755Z,13.25
2019-03-10T18:20:48.602Z,13.03
2019-03-10T18:23:20.386Z,13.09
2019-03-10T18:26:27.125Z,12.37
2019-03-10T18:28:46.295Z,12.19
2019-03-10T18:37:37.462Z,12.12
2019-03-10T18:40:12.653Z,12.12
2019-03-10T18:42:43.670Z,12.46
2019-03-10T18:48:26.860Z,12.42
2019-03-10T18:51:51.506Z,12.52
2019-03-10T18:54:10.374Z,12.61
2019-03-10T18:57:20.170Z,12.58
2019-03-10T18:59:54.555Z,12.59
2019-03-10T19:02:27.706Z,12.71
2019-03-10T19:04:59.373Z,12.80
2019-03-10T19:07:31.173Z,12.85
2019-03-10T19:10:37.418Z,13.13
2019-03-10T19:15:59.068Z,13.61
2019-03-10T19:21:53.530Z,13.96
2019-03-10T19:24:40.709Z,13.70
2019-03-10T19:27:31.441Z,13.70
2019-03-10T19:33:15.559Z,13.40
2019-03-10T19:39:01.929Z,13.95
2019-03-10T19:45:42.301Z,13.69
2019-03-10T19:49:08.269Z,13.88
2019-03-10T19:51:47.910Z,13.64
2019-03-10T19:54:55.342Z,13.64
2019-03-10T20:00:59.207Z,13.02
2019-03-10T20:03:31.305Z,13.21
2019-03-10T20:06:22.349Z,13.44
2019-03-10T20:09:13.533Z,13.51
2019-03-10T20:14:54.535Z,12.86
2019-03-10T20:17:26.496Z,12.75
2019-03-10T20:20:39.792Z,13.22
2019-03-10T20:23:11.286Z,13.47
2019-03-10T20:26:02.035Z,13.61
2019-03-10T20:31:38.192Z,13.56
2019-03-10T20:34:31.175Z,13.50
2019-03-10T20:40:56.594Z,13.58
2019-03-10T20:43:47.360Z,12.27
2019-03-10T20:46:30.645Z,12.55
2019-03-10T20:52:08.705Z,11.88
2019-03-10T20:57:23.949Z,11.96
2019-03-10T21:02:43.476Z,11.79
2019-03-10T21:05:34.243Z,11.45
2019-03-10T21:10:48.559Z,11.16
2019-03-10T21:13:19.328Z,11.34
2019-03-10T21:15:52.061Z,11.00
2019-03-10T21:25:38.891Z,11.24
2019-03-10T21:31:10.248Z,11.21
2019-03-10T21:34:01.290Z,10.96
2019-03-10T21:36:53.120Z,10.90
2019-03-10T21:39:34.129Z,10.97
2019-03-10T21:42:15.636Z,11.12
2019-03-10T21:45:06.477Z,11.01
2019-03-10T21:56:57.315Z,11.25
2019-03-10T22:00:07.102Z,11.21
2019-03-10T22:03:31.159Z,10.89
2019-03-10T22:09:12.453Z,11.61
2019-03-10T22:12:21.192Z,12.07
2019-03-10T22:21:02.033Z,8.89
2019-03-10T22:23:59.330Z,9.28
2019-03-10T22:26:32.209Z,9.36
2019-03-10T22:29:44.164Z,9.25
2019-03-10T22:35:25.429Z,8.57
2019-03-10T22:38:08.335Z,8.54
2019-03-10T22:41:10.908Z,9.05
2019-03-10T22:43:33.877Z,9.48
2019-03-10T22:49:15.357Z,10.35
2019-03-10T22:51:47.417Z,10.57
2019-03-10T22:54:37.211Z,10.68
2019-03-10T23:00:26.682Z,10.87
2019-03-10T23:03:35.790Z,10.74
2019-03-10T23:06:26.608Z,11.06
2019-03-10T23:09:16.549Z,10.73
2019-03-10T23:12:06.149Z,10.82
2019-03-10T23:14:53.269Z,10.94
2019-03-10T23:17:25.192Z,10.82
2019-03-10T23:19:56.970Z,10.72
2019-03-10T23:25:38.495Z,10.30
2019-03-10T23:28:28.089Z,10.19
2019-03-10T23:31:18.847Z,10.26
2019-03-10T23:33:50.838Z,10.40
2019-03-10T23:36:22.885Z,10.52
2019-03-10T23:38:54.590Z,10.68
2019-03-10T23:41:45.349Z,10.71
2019-03-10T23:44:36.210Z,10.67
2019-03-10T23:47:26.161Z,10.41
2019-03-10T23:49:56.999Z,10.40
2019-03-10T23:52:29.276Z,10.53
2019-03-10T23:55:20.080Z,10.53
2019-03-10T23:57:51.845Z,10.55
